McCook Ben Nelson Regional Airport

About
Name: McCook Ben Nelson Regional Airport
Identifier:  MCK/KMCK
Serves:  McCook, Nebraska
Owner:  City of McCook
Public/Private:  Public
Local Time:  22. Sep 21:32 CDT
Description: McCook Ben Nelson Regional Airport is two miles east of McCook, in Red Willow County, Nebraska. It was formerly McCook Municipal Airport and McCook Regional Airport. It sees one airline, subsidized by the Essential Air Service program.
Source: Wikipedia
Location
Runways
Identifier Length (m/ft) Surface
12/30 1,966/6,449 Concrete
4/22 1,219/4,000 Concrete
17/35 411/1,350 Turf
Statistics
Flights per Day:
3 flights
Distance: 341km (212mi)
Flights delayed:
76% (0 flights per day delayed)
Delay Average: 6 minutes
Current Weather
 16 C (Humidity: 63%)
  3kt (5km/h / 3mph) from 360°
  16km (10 mi.)
 
 METAR KMCK 230153Z AUTO 36003KT 10SM CLR 16/09 A3002 RMK AO2 SLP156 T01610089

Current Flights

Arrivals
Number Arrival From Airline
On time 4B764 18:05  Denver Aviastar

Current Delays

Departures
N/A
Arrivals
N/A

Destinations

Top Destinations
Airport Flights
per week
Seats
per week
  Denver (DEN) 14 - 2 0
  Goodland (GLD) 1 - 0 0
  Lincoln (LNK) 0 - 0 0

Airlines & Planes

Top Airlines
Airline Flights
per Day
Seats
per Day
Boutique Air 1 -
Bemidji Airlines 0 -
Aviastar 0 -
Silverhawk Aviation 0 -
Top Plane Types
Model Flights Seats
Pilatus PC-12 1.6/day - 0
Beech 65 Queen Air 0.6/day - 0
Beech E90 King Air 0.1/day - 0